Time;durP1;ratioP1;P1;durP2;ratioP2;P2;SDS_P1;SDS_P2;PMS_P1;PMS_P2;Temp;Humidity;BMP_temperature;BMP_pressure;BME280_temperature;BME280_humidity;BME280_pressure;Samples;Min_cycle;Max_cycle;Signal;HPM_P1;HPM_P2
2022/04/20 00:00:04;;;;;;;3.15;2.20;;;12.40;43.00;;;8.41;53.60;94891.56;5015035;28;20030;-49
2022/04/20 00:02:33;;;;;;;3.08;2.10;;;12.30;43.00;;;8.27;53.98;94893.91;4998542;28;20022;-53
2022/04/20 00:05:01;;;;;;;2.63;2.17;;;12.20;43.10;;;8.24;54.29;94897.09;5016166;28;20079;-50
2022/04/20 00:07:30;;;;;;;5.03;2.10;;;12.20;43.40;;;8.26;54.11;94895.00;5016100;28;20113;-51
2022/04/20 00:09:55;;;;;;;3.67;2.30;;;12.20;43.70;;;8.23;54.20;94884.91;5015938;28;20052;-51
2022/04/20 00:12:21;;;;;;;7.93;2.20;;;12.20;43.80;;;8.24;54.24;94884.66;5030707;28;20501;-52
2022/04/20 00:14:47;;;;;;;5.18;2.33;;;12.20;44.00;;;8.22;54.25;94894.72;5015863;28;20068;-49
2022/04/20 00:17:12;;;;;;;3.35;2.05;;;12.20;44.00;;;8.16;54.80;94884.38;5015592;28;20506;-53
2022/04/20 00:19:38;;;;;;;3.38;2.20;;;12.10;44.20;;;8.16;54.85;94892.34;5015741;28;20030;-49
2022/04/20 00:22:27;;;;;;;2.47;1.88;;;12.10;44.40;;;8.09;54.86;94882.78;4998643;28;20030;-48
2022/04/20 00:24:53;;;;;;;2.97;2.00;;;12.10;44.50;;;8.08;54.84;94888.34;5015688;28;20554;-49
2022/04/20 00:27:21;;;;;;;5.05;2.83;;;12.10;44.50;;;8.07;55.31;94886.75;5015586;28;20113;-48
2022/04/20 00:29:47;;;;;;;3.47;2.03;;;12.00;44.60;;;8.03;55.23;94886.50;5015559;28;20034;-52
2022/04/20 00:32:13;;;;;;;3.28;1.92;;;12.00;44.60;;;7.98;55.54;94891.00;4998368;28;20041;-51
2022/04/20 00:34:44;;;;;;;3.97;2.17;;;12.00;44.60;;;7.92;55.80;94892.06;5015654;28;20104;-54
2022/04/20 00:37:28;;;;;;;3.97;1.95;;;11.90;44.70;;;7.82;56.60;94895.50;5015492;28;20541;-53
2022/04/20 00:39:53;;;;;;;4.00;2.25;;;11.90;44.90;;;7.79;56.77;94888.06;5014345;28;20079;-51
2022/04/20 00:42:22;;;;;;;2.58;1.90;;;11.80;44.90;;;7.72;57.54;94887.53;5015295;28;20073;-52
2022/04/20 00:44:50;;;;;;;5.68;2.25;;;11.80;45.10;;;7.64;57.54;94888.84;5014776;28;20092;-49
2022/04/20 00:47:17;;;;;;;3.38;2.30;;;11.70;45.10;;;7.55;58.15;94888.56;5014039;28;20108;-49
2022/04/20 00:49:46;;;;;;;4.70;2.22;;;11.60;45.20;;;7.44;58.53;94886.94;5014017;28;20040;-49
2022/04/20 00:52:12;;;;;;;3.85;1.92;;;11.60;45.40;;;7.35;58.68;94885.84;5015092;28;20034;-50
2022/04/20 00:54:41;;;;;;;3.30;2.05;;;11.50;45.60;;;7.30;59.25;94885.84;5014999;28;20057;-50
2022/04/20 00:57:09;;;;;;;3.70;2.10;;;11.40;45.70;;;7.20;59.71;94883.94;5015029;28;20038;-50
2022/04/20 00:59:40;;;;;;;3.20;2.30;;;11.30;46.00;;;7.16;59.85;94888.19;5013927;28;20025;-53
2022/04/20 01:02:08;;;;;;;3.78;2.53;;;11.30;46.20;;;7.12;59.93;94890.56;5013580;28;20018;-48
2022/04/20 01:04:38;;;;;;;2.83;1.90;;;11.20;46.30;;;7.08;60.08;94894.78;5013856;28;20110;-52
2022/04/20 01:07:19;;;;;;;3.47;1.85;;;11.10;46.50;;;7.02;60.12;94892.34;5014799;28;20053;-50
2022/04/20 01:09:45;;;;;;;3.53;2.03;;;11.10;46.80;;;7.01;60.43;94898.72;5014887;28;20496;-52
2022/04/20 01:12:14;;;;;;;3.63;2.53;;;11.10;47.40;;;6.90;60.42;94879.34;5034710;23;20053;-53
2022/04/20 01:14:41;;;;;;;3.35;2.28;;;11.00;47.30;;;6.93;60.63;94892.88;5033477;28;20490;-52
2022/04/20 01:17:07;;;;;;;3.50;2.33;;;11.00;47.00;;;6.82;60.91;94893.84;5031132;28;20032;-51
2022/04/20 01:19:39;;;;;;;3.15;1.90;;;10.90;47.20;;;6.83;60.99;94897.28;5049462;28;20033;-52
2022/04/20 01:22:11;;;;;;;2.63;2.25;;;10.90;47.40;;;6.79;60.93;94897.03;5042891;28;20116;-49
2022/04/20 01:24:45;;;;;;;3.17;2.10;;;10.80;47.50;;;6.73;61.11;94896.19;5052899;28;20021;-50
2022/04/20 01:27:14;;;;;;;2.33;1.73;;;10.90;47.70;;;6.59;61.04;94876.53;5054138;28;20029;-51
2022/04/20 01:29:41;;;;;;;10.00;2.35;;;10.80;47.80;;;6.62;61.14;94886.63;5052764;28;20387;-51
2022/04/20 01:32:09;;;;;;;4.60;2.08;;;10.80;47.90;;;6.65;61.03;94891.41;5035785;28;20025;-50
2022/04/20 01:34:38;;;;;;;4.93;2.10;;;10.70;48.00;;;6.67;61.13;94891.13;5054017;28;20557;-50
2022/04/20 01:37:10;;;;;;;3.75;2.10;;;10.70;48.10;;;6.66;60.72;94885.03;5053856;28;20111;-51
2022/04/20 01:39:39;;;;;;;3.40;2.15;;;10.70;48.30;;;6.66;60.72;94887.69;5052732;28;20029;-51
2022/04/20 01:42:08;;;;;;;3.95;1.92;;;10.70;48.40;;;6.64;60.32;94881.06;5052884;28;20040;-53
2022/04/20 01:44:34;;;;;;;3.65;1.95;;;10.70;48.40;;;6.62;60.27;94877.88;5053750;28;20546;-53
2022/04/20 01:47:09;;;;;;;2.95;2.10;;;10.70;48.30;;;6.64;60.02;94876.59;5052548;28;20103;-50
2022/04/20 01:49:34;;;;;;;2.95;2.20;;;10.70;48.40;;;6.67;59.50;94876.03;5053702;28;20112;-53
2022/04/20 01:52:03;;;;;;;2.70;2.15;;;10.70;48.30;;;6.56;59.71;94852.44;5053575;28;20083;-55
2022/04/20 01:54:35;;;;;;;6.70;2.53;;;10.70;48.30;;;6.63;59.68;94869.69;5053599;28;20096;-52
2022/04/20 01:57:01;;;;;;;5.72;2.20;;;10.70;48.40;;;6.65;59.71;94872.06;5052068;28;20055;-50
2022/04/20 01:59:27;;;;;;;5.32;2.25;;;10.70;48.40;;;6.58;59.75;94860.91;5053461;28;20121;-49
2022/04/20 02:04:39;;;;;;;2.78;2.10;;;10.70;48.40;;;6.55;60.00;94872.00;5053425;28;20110;-50
2022/04/20 02:07:23;;;;;;;3.70;2.00;;;10.60;48.40;;;6.51;60.31;94858.50;5053310;28;20483;-54
2022/04/20 02:09:49;;;;;;;3.13;2.22;;;10.60;48.40;;;6.46;60.08;94864.56;5051837;28;20029;-50
2022/04/20 02:12:18;;;;;;;4.20;2.30;;;10.60;48.50;;;6.46;60.22;94871.72;5037875;28;20045;-52
2022/04/20 02:14:47;;;;;;;4.97;1.90;;;10.60;48.50;;;6.42;60.55;94866.09;5053168;28;20033;-51
2022/04/20 02:17:19;;;;;;;3.92;2.30;;;10.60;48.60;;;6.41;60.71;94869.81;5035159;28;20028;-51
2022/04/20 02:19:44;;;;;;;2.92;2.22;;;10.50;48.60;;;6.35;60.89;94868.19;5053082;28;20029;-54
2022/04/20 02:22:10;;;;;;;5.20;2.30;;;10.50;48.60;;;6.23;61.25;94863.06;5051424;28;20033;-55
2022/04/20 02:24:36;;;;;;;3.55;2.13;;;10.40;48.60;;;6.22;61.34;94873.94;5051854;28;20078;-51
2022/04/20 02:27:09;;;;;;;2.97;2.25;;;10.40;48.70;;;6.14;61.75;94863.81;5051652;28;20399;-50
2022/04/20 02:29:35;;;;;;;7.53;2.17;;;10.40;48.90;;;6.07;61.78;94864.03;5051841;28;20074;-54
2022/04/20 02:32:10;;;;;;;4.07;2.47;;;10.30;48.90;;;6.05;61.60;94874.06;5052839;28;20033;-56
2022/04/20 02:34:36;;;;;;;2.30;2.10;;;10.30;49.00;;;6.03;61.53;94871.66;5052637;28;20470;-55
2022/04/20 02:37:04;;;;;;;4.85;2.25;;;10.20;49.00;;;5.97;61.91;94867.38;5052654;28;20049;-54
2022/04/20 02:39:35;;;;;;;4.68;2.20;;;10.20;49.10;;;5.95;62.08;94872.13;5052780;28;20469;-51
2022/04/20 02:42:08;;;;;;;2.80;2.17;;;10.20;49.10;;;5.93;62.32;94876.09;5051298;28;20028;-55
2022/04/20 02:44:35;;;;;;;4.85;2.00;;;10.10;49.20;;;5.88;61.83;94873.38;5051472;28;20029;-52
2022/04/20 02:47:01;;;;;;;5.85;2.20;;;10.00;49.10;;;5.87;61.89;94875.22;5052373;28;20029;-54
2022/04/20 02:49:26;;;;;;;3.72;2.45;;;10.00;49.20;;;5.82;62.26;94877.00;5051261;28;20033;-55
2022/04/20 02:51:58;;;;;;;3.92;2.10;;;10.00;49.20;;;5.75;62.17;94877.22;5052450;28;20040;-53
2022/04/20 02:54:30;;;;;;;7.90;2.78;;;9.90;49.30;;;5.73;62.71;94888.03;5051305;28;20024;-51
2022/04/20 02:57:05;;;;;;;4.22;2.40;;;9.90;49.40;;;5.67;62.81;94878.50;5052342;28;20043;-50
2022/04/20 02:59:31;;;;;;;3.65;2.30;;;9.90;49.30;;;5.61;62.86;94882.13;5051061;28;20120;-54
2022/04/20 03:01:56;;;;;;;3.88;2.50;;;9.80;49.30;;;5.57;63.22;94878.38;5052567;28;20099;-53
2022/04/20 03:04:25;;;;;;;4.20;2.80;;;9.70;49.30;;;5.50;63.23;94885.72;5052373;28;20031;-53
2022/04/20 03:06:53;;;;;;;3.17;2.10;;;9.70;49.50;;;5.41;63.10;94866.88;5052332;28;20074;-55
2022/04/20 03:09:28;;;;;;;4.78;2.30;;;9.70;49.60;;;5.44;63.01;94876.13;5051333;28;20025;-51
2022/04/20 03:11:53;;;;;;;4.20;2.70;;;9.70;49.60;;;5.40;63.02;94869.78;5037476;28;20427;-53
2022/04/20 03:14:22;;;;;;;3.20;2.50;;;9.60;49.70;;;5.34;63.24;94872.34;5051039;28;20025;-49
2022/04/20 03:16:49;;;;;;;5.72;2.70;;;9.60;49.90;;;5.30;63.98;94865.19;5052205;28;20028;-51
2022/04/20 03:19:30;;;;;;;3.47;2.55;;;9.60;50.00;;;5.24;63.79;94866.97;5067569;28;20447;-50
2022/04/20 03:21:55;;;;;;;3.53;2.83;;;9.50;50.10;;;5.25;63.63;94870.41;5052113;28;20025;-52
2022/04/20 03:24:21;;;;;;;5.13;2.60;;;9.50;50.20;;;5.23;64.07;94873.31;5049810;28;20570;-53
2022/04/20 03:26:53;;;;;;;3.85;2.30;;;9.50;50.20;;;5.18;63.95;94875.88;5067636;28;20039;-51
2022/04/20 03:29:18;;;;;;;3.17;2.13;;;9.40;50.20;;;5.17;63.83;94874.28;5050912;28;20387;-52
2022/04/20 03:32:00;;;;;;;3.47;2.10;;;9.40;50.30;;;5.14;64.20;94881.88;5051884;28;20032;-51
2022/04/20 03:34:26;;;;;;;3.35;2.75;;;9.30;50.30;;;5.15;64.25;94876.38;5051129;28;20492;-49
2022/04/20 03:36:54;;;;;;;4.53;3.00;;;9.30;50.30;;;5.06;64.43;94878.63;5051806;28;20055;-50
2022/04/20 03:39:20;;;;;;;4.30;2.78;;;9.30;50.50;;;5.06;64.55;94883.13;5051834;28;20047;-49
2022/04/20 03:41:49;;;;;;;6.68;3.03;;;9.30;50.60;;;4.99;64.65;94864.84;5050521;28;20483;-50
2022/04/20 03:44:27;;;;;;;3.88;2.80;;;9.20;50.70;;;4.99;64.94;94862.19;5052049;28;20380;-49
2022/04/20 03:46:58;;;;;;;4.03;2.92;;;9.20;50.90;;;4.98;64.80;94865.91;5051857;28;20031;-52
2022/04/20 03:49:24;;;;;;;4.88;2.83;;;9.20;50.90;;;4.99;64.86;94882.53;5051807;28;20078;-55
2022/04/20 03:51:50;;;;;;;3.33;2.70;;;9.20;50.90;;;5.00;64.36;94876.19;5051602;28;20025;-51
2022/04/20 03:54:16;;;;;;;4.70;2.85;;;9.10;50.90;;;4.96;64.85;94875.09;5051875;28;20021;-51
2022/04/20 03:57:10;;;;;;;4.68;2.80;;;9.10;50.80;;;4.90;64.72;94884.78;5050674;28;20472;-51
2022/04/20 03:59:39;;;;;;;3.70;3.00;;;9.10;50.80;;;4.87;65.03;94885.28;5067265;28;20124;-52
2022/04/20 04:02:06;;;;;;;4.10;3.10;;;9.00;50.80;;;4.82;65.38;94883.34;5066793;28;20021;-49
2022/04/20 04:04:33;;;;;;;8.32;3.05;;;9.00;50.70;;;4.83;64.89;94895.53;5033919;28;20118;-50
2022/04/20 04:06:59;;;;;;;4.60;2.92;;;8.90;50.60;;;4.79;65.17;94896.25;5050544;28;20020;-49
2022/04/20 04:09:38;;;;;;;6.20;2.58;;;8.80;50.50;;;4.62;65.77;94886.53;5051658;28;20029;-50
2022/04/20 04:12:07;;;;;;;4.13;2.92;;;8.80;50.60;;;4.58;65.74;94879.38;5035774;28;20042;-49
2022/04/20 04:14:41;;;;;;;4.90;3.38;;;8.70;50.40;;;4.47;66.95;94891.63;5050151;28;20518;-53
2022/04/20 04:17:16;;;;;;;5.53;3.03;;;8.70;50.60;;;4.36;67.06;94888.03;5050284;28;20091;-50
2022/04/20 04:19:46;;;;;;;4.75;3.70;;;8.60;50.80;;;4.33;66.82;94896.44;5051598;28;20029;-50
2022/04/20 04:22:24;;;;;;;4.88;3.42;;;8.60;51.00;;;4.30;67.26;94890.84;5050163;28;20033;-50
2022/04/20 04:24:49;;;;;;;4.22;3.10;;;8.60;51.40;;;4.28;67.48;94887.66;5051528;28;20060;-50
2022/04/20 04:27:17;;;;;;;5.53;3.40;;;8.50;51.50;;;4.29;67.54;94884.75;5051280;28;20037;-51
2022/04/20 04:29:51;;;;;;;4.88;2.80;;;8.50;51.60;;;4.25;67.57;94880.22;5051542;28;20029;-50
2022/04/20 04:32:17;;;;;;;4.65;3.35;;;8.40;51.70;;;4.20;67.94;94882.78;5050166;28;20487;-50
2022/04/20 04:34:43;;;;;;;5.20;3.28;;;8.40;51.90;;;4.14;67.69;94880.09;5051489;28;20036;-52
2022/04/20 04:37:20;;;;;;;3.78;2.88;;;8.40;52.00;;;4.12;67.99;94876.88;5070102;28;20132;-53
2022/04/20 04:39:49;;;;;;;4.65;3.03;;;8.40;52.20;;;4.08;68.04;94873.13;5053710;28;20116;-50
2022/04/20 04:42:14;;;;;;;6.82;3.30;;;8.40;52.30;;;4.10;68.42;94878.16;5042062;28;20116;-52
2022/04/20 04:44:40;;;;;;;6.07;3.90;;;8.40;52.40;;;4.08;68.64;94872.34;5054961;28;20053;-51
2022/04/20 04:49:54;;;;;;;4.35;3.30;;;8.40;52.60;;;4.11;67.95;94866.59;5054700;28;20040;-54
2022/04/20 04:52:20;;;;;;;8.23;4.22;;;8.40;52.80;;;4.21;68.09;94874.63;5054608;28;20094;-51
2022/04/20 04:54:46;;;;;;;6.35;3.58;;;8.40;52.70;;;4.21;67.80;94866.72;5054666;28;20028;-53
2022/04/20 04:57:43;;;;;;;4.95;3.38;;;8.40;52.60;;;4.27;67.78;94872.88;5036829;28;20505;-53
2022/04/20 05:00:09;;;;;;;5.43;3.47;;;8.50;52.70;;;4.27;67.89;94868.41;5054708;28;20087;-51
2022/04/20 05:02:38;;;;;;;4.57;3.30;;;8.60;52.60;;;4.38;67.15;94878.03;5054308;28;20098;-51
2022/04/20 05:05:07;;;;;;;4.72;3.85;;;8.60;52.60;;;4.55;66.85;94882.50;5053342;28;20090;-50
2022/04/20 05:07:39;;;;;;;8.80;3.78;;;8.70;52.60;;;4.66;66.35;94888.69;5054451;28;20021;-52
2022/04/20 05:10:05;;;;;;;4.93;3.90;;;8.80;52.40;;;4.69;66.32;94896.91;5054472;28;20036;-49
2022/04/20 05:12:34;;;;;;;5.72;3.38;;;8.80;52.30;;;4.66;66.04;94894.78;5055004;28;20051;-52
2022/04/20 05:15:04;;;;;;;5.05;3.67;;;8.80;52.20;;;4.69;66.12;94888.22;5052961;28;20036;-50
2022/04/20 05:17:30;;;;;;;3.75;3.33;;;8.90;52.20;;;4.92;65.59;94895.09;5036435;28;20458;-52
2022/04/20 05:19:55;;;;;;;4.07;3.20;;;9.00;52.00;;;5.10;64.29;94897.41;5034938;28;20055;-49
2022/04/20 05:22:21;;;;;;;8.27;3.42;;;9.20;51.80;;;5.23;64.03;94898.88;5048103;28;20311;-52
2022/04/20 05:24:47;;;;;;;7.90;3.60;;;9.30;51.70;;;5.30;63.55;94900.31;5030491;28;20036;-51
2022/04/20 05:27:13;;;;;;;5.60;3.22;;;9.50;51.50;;;5.29;63.39;94896.03;5039858;28;20040;-52
2022/04/20 05:29:39;;;;;;;7.53;3.88;;;9.60;51.30;;;5.26;64.04;94904.47;5032567;28;20033;-56
2022/04/20 05:32:05;;;;;;;7.95;3.85;;;9.70;51.20;;;5.16;63.25;94890.38;5035212;28;20365;-54
2022/04/20 05:34:33;;;;;;;6.78;3.78;;;9.70;51.10;;;5.20;63.57;94902.03;5037010;28;20036;-55
2022/04/20 05:42:27;;;;;;;5.05;3.22;;;10.10;50.50;;;5.64;62.02;94892.19;5044426;28;20071;-56
2022/04/20 05:44:52;;;;;;;5.55;3.42;;;10.30;50.20;;;5.84;61.44;94893.44;5036303;28;20476;-57
2022/04/20 05:47:21;;;;;;;4.90;3.67;;;10.50;49.90;;;5.95;61.04;94887.19;5041768;28;20064;-56
2022/04/20 05:49:47;;;;;;;4.00;3.30;;;10.70;49.50;;;6.07;60.62;94889.66;5048276;28;20183;-56
2022/04/20 05:52:16;;;;;;;6.05;3.20;;;10.90;49.10;;;6.10;60.68;94889.16;5036168;28;20025;-56
2022/04/20 05:54:42;;;;;;;4.57;3.67;;;11.00;48.90;;;5.90;60.95;94890.56;5050935;28;20112;-57
2022/04/20 05:57:08;;;;;;;5.25;3.63;;;11.00;48.60;;;5.91;60.71;94889.50;5053563;28;20159;-57
2022/04/20 05:59:33;;;;;;;4.13;3.30;;;11.00;48.50;;;6.03;60.70;94892.81;5053658;28;20407;-56
2022/04/20 06:01:59;;;;;;;5.45;3.08;;;11.00;48.40;;;6.14;60.17;94892.91;5052188;28;20498;-56
2022/04/20 06:04:25;;;;;;;5.93;3.42;;;11.20;48.10;;;6.30;59.67;94902.56;5050293;28;20045;-54
2022/04/20 06:06:51;;;;;;;5.60;3.78;;;11.40;47.80;;;6.36;59.25;94898.06;5053126;28;20025;-57
2022/04/20 06:09:17;;;;;;;3.65;3.08;;;11.60;47.80;;;6.61;58.54;94897.44;5036278;28;20076;-54
2022/04/20 06:11:42;;;;;;;5.13;3.00;;;11.80;47.20;;;6.83;57.45;94898.13;5031663;28;20028;-56
2022/04/20 06:14:08;;;;;;;3.78;2.88;;;12.00;47.00;;;6.97;57.25;94901.09;5032281;28;20033;-58
2022/04/20 06:16:41;;;;;;;4.70;3.22;;;12.20;46.60;;;7.16;56.71;94912.81;5008252;28;20049;-57
2022/04/20 06:19:07;;;;;;;;;;;12.50;46.20;;;7.26;56.58;94901.47;5037166;28;20391;-58
2022/04/20 06:21:35;;;;;;;5.53;3.72;;;12.60;45.90;;;7.52;55.81;94896.22;5031338;28;19917;-56
2022/04/20 06:24:10;;;;;;;6.78;3.58;;;12.90;45.40;;;7.62;55.27;94906.88;5037769;28;20055;-55
2022/04/20 06:26:36;;;;;;;4.38;3.42;;;13.20;45.00;;;7.89;54.68;94901.34;5046579;28;20021;-55
2022/04/20 06:29:04;;;;;;;4.25;3.45;;;13.40;44.70;;;7.72;55.38;94887.53;5039123;28;20038;-57
2022/04/20 06:31:40;;;;;;;3.42;3.05;;;13.60;44.00;;;8.01;54.64;94891.25;5051592;28;20064;-58
2022/04/20 06:34:05;;;;;;;4.05;3.03;;;13.90;43.60;;;8.32;53.94;94893.91;5045221;28;20021;-58
2022/04/20 06:36:31;;;;;;;4.90;3.47;;;14.10;43.30;;;8.43;53.11;94887.59;5052756;28;20051;-58
2022/04/20 06:39:09;;;;;;;3.92;3.28;;;14.30;42.80;;;8.59;52.90;94880.38;5039296;28;20361;-58
2022/04/20 06:41:38;;;;;;;6.18;3.35;;;14.50;42.40;;;8.63;52.86;94883.31;5047957;28;20072;-58
2022/04/20 06:44:04;;;;;;;4.78;3.10;;;14.70;41.80;;;8.82;52.03;94876.34;5052725;28;20047;-58
2022/04/20 06:46:38;;;;;;;3.33;2.45;;;14.90;41.50;;;8.38;52.10;94866.34;5052600;28;20029;-56
2022/04/20 06:49:04;;;;;;;6.60;3.10;;;15.10;40.60;;;8.56;52.52;94865.78;5068035;28;20035;-55
2022/04/20 06:59:46;;;;;;;4.45;3.20;;;15.60;39.10;;;8.68;51.16;94877.97;5059374;28;20044;-57
2022/04/20 07:02:12;;;;;;;3.65;2.75;;;15.70;38.40;;;8.82;50.72;94871.03;5045995;28;20029;-58
2022/04/20 07:04:41;;;;;;;5.22;2.78;;;15.80;38.20;;;9.06;50.37;94870.41;5052332;28;20464;-57
2022/04/20 07:07:07;;;;;;;5.47;3.00;;;15.80;38.00;;;9.00;49.97;94870.44;5051126;28;20028;-57
2022/04/20 07:09:32;;;;;;;4.35;3.08;;;16.00;37.70;;;9.09;50.29;94875.19;5047845;28;20032;-55
2022/04/20 07:12:05;;;;;;;4.72;3.22;;;16.10;37.40;;;9.01;49.08;94865.91;5051390;28;20025;-52
2022/04/20 07:14:30;;;;;;;5.75;3.35;;;16.20;36.80;;;9.32;48.59;94860.47;5051010;28;20037;-58
2022/04/20 07:17:02;;;;;;;5.60;3.00;;;16.30;36.90;;;9.57;48.16;94860.34;5050894;28;20036;-53
2022/04/20 07:19:40;;;;;;;4.80;2.97;;;16.40;36.40;;;9.71;48.39;94855.19;5050764;28;20108;-51
2022/04/20 07:22:09;;;;;;;5.18;2.80;;;16.60;36.40;;;10.05;47.94;94862.41;5050771;28;20025;-50
2022/04/20 07:24:34;;;;;;;5.40;3.20;;;16.70;36.40;;;10.30;47.41;94862.22;5050809;28;20442;-49
2022/04/20 07:27:03;;;;;;;4.78;2.47;;;16.90;36.30;;;10.49;45.90;94864.19;5043050;28;20059;-50
2022/04/20 07:29:29;;;;;;;3.25;2.90;;;17.20;35.90;;;10.62;45.84;94863.50;5029495;28;20025;-56
2022/04/20 07:31:58;;;;;;;4.45;2.90;;;17.40;35.50;;;10.44;45.75;94882.88;5028517;28;20096;-55
2022/04/20 07:34:24;;;;;;;3.92;2.47;;;17.60;34.80;;;10.51;46.02;94860.16;5031027;28;20353;-51
2022/04/20 07:36:49;;;;;;;3.83;2.90;;;17.70;34.50;;;10.62;45.22;94867.00;5030955;28;20036;-50
2022/04/20 07:39:15;;;;;;;3.33;2.47;;;17.90;34.20;;;10.69;45.05;94868.53;5031325;28;20104;-51
2022/04/20 07:41:42;;;;;;;6.85;2.90;;;18.00;33.70;;;10.76;45.29;94874.31;5030653;28;20369;-51
2022/04/20 07:44:08;;;;;;;4.20;2.90;;;18.10;33.40;;;10.97;43.91;94862.34;5036798;28;20103;-49
2022/04/20 07:46:34;;;;;;;4.15;2.90;;;18.30;33.00;;;11.05;44.35;94867.03;5031338;28;20025;-50
2022/04/20 07:50:18;;;;;;;4.85;2.78;;;18.40;32.60;;;11.09;44.61;94872.59;5026756;28;20099;-51
2022/04/20 07:51:46;;;;;;;5.85;2.90;;;18.50;32.50;;;11.06;44.27;94871.31;5034789;28;20053;-54
2022/04/20 07:54:12;;;;;;;3.60;2.88;;;18.60;32.10;;;10.72;45.47;94883.91;5030201;28;20022;-53
2022/04/20 07:56:37;;;;;;;4.75;2.70;;;18.70;31.70;;;11.10;44.53;94885.66;5044281;28;20030;-55
2022/04/20 07:59:03;;;;;;;3.50;3.05;;;18.80;31.60;;;11.18;43.92;94884.22;5032136;28;20488;-51
2022/04/20 08:01:29;;;;;;;3.65;2.67;;;18.90;31.40;;;11.65;43.58;94871.88;5029763;28;20485;-55
2022/04/20 08:03:55;;;;;;;4.43;3.22;;;19.00;31.40;;;11.63;42.57;94876.72;5028440;28;20033;-50
2022/04/20 08:06:20;;;;;;;3.80;2.63;;;19.20;31.10;;;11.68;42.60;94867.84;5014145;28;20071;-53
2022/04/20 08:08:46;;;;;;;6.85;2.70;;;19.30;30.80;;;11.88;42.01;94872.94;5029807;28;20029;-53
2022/04/20 08:11:12;;;;;;;3.60;2.55;;;19.40;30.50;;;12.28;42.04;94873.38;5031064;28;20044;-55
2022/04/20 08:16:27;;;;;;;4.05;2.85;;;19.70;30.50;;;12.64;40.87;94857.53;5031653;28;20144;-51
2022/04/20 08:18:59;;;;;;;3.97;3.03;;;20.00;30.00;;;12.92;41.08;94861.03;5035755;28;20021;-51
2022/04/20 08:21:25;;;;;;;4.47;2.50;;;20.20;30.00;;;12.66;40.94;94868.72;5035075;28;20628;-52
2022/04/20 08:23:50;;;;;;;4.15;3.47;;;20.30;29.50;;;12.13;41.41;94861.06;5044785;28;20021;-52
2022/04/20 08:26:16;;;;;;;6.45;3.30;;;20.40;29.00;;;12.45;41.03;94849.59;5070835;28;20075;-55
2022/04/20 08:28:46;;;;;;;5.80;2.92;;;20.40;28.90;;;12.61;40.87;94854.66;5037487;28;20029;-52
2022/04/20 08:31:17;;;;;;;4.50;2.85;;;20.50;28.80;;;12.73;40.45;94863.78;5055079;28;20029;-53
2022/04/20 08:33:49;;;;;;;3.63;2.58;;;20.60;28.70;;;12.79;40.01;94850.34;5055151;28;20028;-53
2022/04/20 08:36:18;;;;;;;4.28;2.60;;;20.70;28.70;;;12.95;40.83;94865.78;5055271;28;20415;-56
2022/04/20 08:38:44;;;;;;;5.38;3.10;;;20.70;28.70;;;12.79;40.66;94863.72;5054097;28;20361;-56
2022/04/20 08:41:12;;;;;;;5.47;2.78;;;20.90;28.50;;;12.99;40.50;94873.22;5053691;28;20040;-56
2022/04/20 08:43:41;;;;;;;3.47;2.75;;;20.80;28.50;;;13.22;40.00;94866.84;5053843;28;20028;-56
2022/04/20 08:46:11;;;;;;;3.95;2.58;;;20.90;28.40;;;13.45;40.29;94872.34;5053783;28;20391;-54
2022/04/20 08:48:37;;;;;;;4.70;2.78;;;21.00;28.40;;;13.23;40.30;94868.47;5053775;28;20052;-55
2022/04/20 08:51:06;;;;;;;6.43;3.03;;;21.20;28.30;;;13.71;40.26;94870.69;5055176;28;20487;-53
2022/04/20 08:53:38;;;;;;;4.38;2.80;;;21.30;28.30;;;13.94;39.40;94873.41;5048135;28;20021;-54
2022/04/20 08:59:01;;;;;;;4.25;2.88;;;21.60;28.20;;;14.29;37.57;94877.94;5054696;28;20037;-52
2022/04/20 09:01:29;;;;;;;4.00;3.25;;;21.80;27.90;;;13.73;39.11;94881.91;5045243;28;20400;-53
2022/04/20 09:04:04;;;;;;;4.93;2.80;;;22.00;27.40;;;13.80;39.58;94876.13;5053232;28;20057;-56
2022/04/20 09:06:45;;;;;;;5.25;2.50;;;22.00;27.30;;;14.53;37.99;94868.81;5053428;28;20049;-54
2022/04/20 09:09:11;;;;;;;4.80;3.17;;;22.10;27.60;;;14.61;38.10;94878.81;5034012;28;20436;-55
2022/04/20 09:11:38;;;;;;;6.03;2.88;;;22.30;27.20;;;14.42;37.88;94878.19;5033271;28;20060;-52
2022/04/20 09:14:21;;;;;;;3.65;2.90;;;22.50;26.90;;;14.19;37.24;94872.81;5029336;28;20095;-55
2022/04/20 09:16:56;;;;;;;4.82;2.80;;;22.60;26.50;;;14.10;38.76;94853.22;5031650;28;20503;-52
2022/04/20 09:19:26;;;;;;;4.95;2.70;;;22.60;26.40;;;14.73;37.76;94868.31;5051151;28;20049;-55
2022/04/20 09:21:52;;;;;;;3.60;2.90;;;22.70;26.60;;;14.92;37.64;94867.28;5042478;28;20033;-55
2022/04/20 09:24:18;;;;;;;3.28;2.97;;;22.80;26.60;;;15.01;37.21;94865.41;5031731;28;20108;-50
2022/04/20 09:26:51;;;;;;;4.43;2.88;;;22.90;27.00;;;14.69;38.09;94872.69;5031445;28;20463;-53
2022/04/20 09:29:17;;;;;;;;;;;23.00;26.30;;;14.84;38.07;94860.78;5053335;28;20028;-56
2022/04/20 09:31:49;;;;;;;3.30;2.80;;;23.00;26.40;;;15.42;37.14;94862.41;5052863;28;19909;-55
2022/04/20 09:34:32;;;;;;;3.27;2.90;;;23.20;26.30;;;15.98;36.80;94869.91;5047804;28;20034;-55
2022/04/20 09:36:58;;;;;;;4.53;3.33;;;23.40;26.50;;;16.02;36.13;94869.00;5049396;28;20025;-56
2022/04/20 09:39:31;;;;;;;5.13;2.85;;;23.50;26.30;;;16.23;36.15;94874.50;5042485;28;20028;-56
2022/04/20 09:42:09;;;;;;;5.13;3.30;;;23.70;26.30;;;16.32;35.21;94874.50;5051468;28;20031;-52
2022/04/20 09:44:35;;;;;;;4.97;2.95;;;23.90;26.20;;;16.06;35.70;94875.31;5067550;28;20116;-56
2022/04/20 09:50:02;;;;;;;3.30;3.00;;;24.10;25.70;;;16.62;35.77;94870.81;5046067;28;20036;-55
2022/04/20 09:52:43;;;;;;;4.68;3.00;;;24.30;25.60;;;17.03;34.71;94871.38;5052897;28;20021;-56
2022/04/20 09:55:27;;;;;;;5.82;3.10;;;24.50;25.50;;;16.71;34.00;94864.66;5039981;28;20499;-57
2022/04/20 09:58:07;;;;;;;6.88;3.00;;;24.60;25.00;;;17.03;34.51;94861.41;5026441;28;20033;-55
2022/04/20 10:00:41;;;;;;;5.85;3.38;;;24.80;25.00;;;16.99;34.32;94859.69;5033491;28;20036;-57
2022/04/20 10:03:39;;;;;;;5.32;3.13;;;25.00;25.00;;;16.85;36.00;94851.81;5003386;28;20044;-52
2022/04/20 10:06:11;;;;;;;4.85;3.50;;;25.10;24.80;;;16.94;35.27;94852.56;5052118;28;20036;-53
2022/04/20 10:08:37;;;;;;;5.47;3.65;;;25.20;24.70;;;16.96;34.21;94849.56;5048805;28;20021;-51
2022/04/20 10:11:09;;;;;;;3.83;3.22;;;25.20;24.60;;;16.53;34.14;94851.22;5044628;28;20511;-54
2022/04/20 10:13:36;;;;;;;;;;;25.30;24.30;;;16.79;35.17;94851.19;5058821;28;20033;-53
2022/04/20 10:16:10;;;;;;;3.55;3.25;;;25.30;24.30;;;16.96;33.98;94860.31;5052116;28;19913;-56
2022/04/20 10:18:50;;;;;;;3.60;3.28;;;25.40;24.10;;;16.91;34.18;94847.03;5052108;28;20437;-54
2022/04/20 10:21:15;;;;;;;4.07;3.67;;;25.50;24.00;;;17.21;33.97;94845.97;5052545;28;20079;-55
2022/04/20 10:26:34;;;;;;;3.85;3.28;;;25.50;24.10;;;17.27;34.52;94844.69;5052387;28;20062;-56
2022/04/20 10:29:17;;;;;;;4.40;3.17;;;25.60;24.00;;;17.48;33.66;94841.22;5035215;28;20039;-56
2022/04/20 10:31:53;;;;;;;4.68;3.38;;;25.70;24.20;;;17.21;33.39;94842.50;5052884;28;20475;-51
2022/04/20 10:34:27;;;;;;;4.25;3.47;;;25.80;23.80;;;17.10;34.75;94842.06;5051381;28;20032;-55
2022/04/20 10:37:07;;;;;;;3.70;3.40;;;25.80;23.60;;;17.43;34.00;94831.44;5051699;28;20025;-55
2022/04/20 10:39:40;;;;;;;5.07;3.38;;;25.80;23.60;;;17.78;33.88;94831.25;5052908;28;20040;-55
2022/04/20 10:42:12;;;;;;;10.80;3.72;;;25.90;23.90;;;17.58;34.00;94830.88;5051290;28;20021;-54
2022/04/20 10:45:03;;;;;;;7.38;3.67;;;26.00;23.60;;;17.52;33.88;94816.03;5051486;28;20056;-54
2022/04/20 10:47:33;;;;;;;4.28;3.60;;;26.00;23.50;;;17.70;34.03;94821.28;5052738;28;20036;-55
2022/04/20 10:50:23;;;;;;;3.88;3.53;;;26.10;23.60;;;17.68;34.15;94824.31;5052637;28;20124;-51
2022/04/20 10:53:06;;;;;;;4.53;3.72;;;26.20;23.50;;;17.64;33.46;94818.00;5052486;28;20047;-55
2022/04/20 10:55:41;;;;;;;3.63;3.28;;;26.20;23.30;;;17.74;34.22;94814.94;5028662;28;20062;-56
2022/04/20 10:58:22;;;;;;;4.28;3.03;;;26.30;23.20;;;17.84;34.40;94818.38;5052468;28;20139;-56
2022/04/20 11:01:12;;;;;;;3.42;3.13;;;26.30;23.40;;;17.72;32.91;94814.47;5045055;28;20052;-56
2022/04/20 11:04:04;;;;;;;3.42;3.13;;;26.40;23.20;;;17.76;32.26;94814.59;5023080;28;20317;-51
2022/04/20 11:06:59;;;;;;;4.88;3.50;;;26.40;22.80;;;17.73;33.63;94815.25;5030964;28;20029;-54